Time;durP1;ratioP1;P1;durP2;ratioP2;P2;SDS_P1;SDS_P2;PMS_P1;PMS_P2;Temp;Humidity;BMP_temperature;BMP_pressure;BME280_temperature;BME280_humidity;BME280_pressure;Samples;Min_cycle;Max_cycle;Signal;HPM_P1;HPM_P2
2021/01/25 00:00:54;;;;;;;13.13;3.88;;;;;;;12.42;64.09;98174.44;5054816;28;20075;-82
2021/01/25 00:03:19;;;;;;;12.98;5.97;;;;;;;12.39;65.01;98181.00;5036930;28;20455;-80
2021/01/25 00:05:44;;;;;;;11.23;5.15;;;;;;;11.58;65.38;98030.53;5054843;28;20047;-79
2021/01/25 00:08:10;;;;;;;11.85;4.60;;;;;;;12.33;65.90;98136.88;5054597;28;20037;-86
2021/01/25 00:10:35;;;;;;;10.55;3.72;;;;;;;12.00;66.33;98078.28;5054685;28;20036;-83
2021/01/25 00:13:01;;;;;;;10.40;4.15;;;;;;;12.12;66.06;98086.28;5054542;28;20021;-84
2021/01/25 00:15:26;;;;;;;9.48;3.85;;;;;;;12.06;66.13;98088.78;5054508;28;20458;-92
2021/01/25 00:17:52;;;;;;;7.50;4.15;;;;;;;12.12;66.02;98100.31;5054665;28;20107;-85
2021/01/25 00:20:17;;;;;;;11.95;3.55;;;;;;;11.85;65.74;98038.97;5054516;28;20025;-84
2021/01/25 00:22:43;;;;;;;9.50;3.55;;;;;;;12.23;66.14;98091.63;5054497;28;20055;-88
2021/01/25 00:25:09;;;;;;;10.20;3.67;;;;;;;12.24;65.61;98090.59;5054424;28;20099;-85
2021/01/25 00:27:34;;;;;;;8.60;4.18;;;;;;;12.15;65.81;98062.03;5054622;28;20099;-85
2021/01/25 00:29:59;;;;;;;7.28;3.92;;;;;;;12.27;65.79;98084.84;5036983;28;20050;-77
2021/01/25 00:32:25;;;;;;;8.85;3.33;;;;;;;11.93;65.22;98028.13;5054305;28;20032;-82
2021/01/25 00:34:51;;;;;;;13.38;4.53;;;;;;;12.25;65.98;98083.47;5036802;28;20339;-90
2021/01/25 00:37:16;;;;;;;12.90;4.25;;;;;;;12.27;65.17;98089.34;5036746;28;20024;-83
2021/01/25 00:39:41;;;;;;;11.27;4.28;;;;;;;12.09;65.29;98066.38;5036876;28;20028;-86
2021/01/25 00:42:07;;;;;;;11.32;4.07;;;;;;;11.62;65.67;97975.38;5054417;28;20036;-89
2021/01/25 00:44:32;;;;;;;14.88;4.07;;;;;;;12.34;65.26;98101.44;5036705;28;20328;-88
2021/01/25 00:46:58;;;;;;;11.43;3.90;;;;;;;12.22;65.07;98074.13;5054415;28;20107;-90
2021/01/25 00:49:23;;;;;;;14.07;4.45;;;;;;;11.56;64.50;97949.84;5036533;28;20127;-92
2021/01/25 00:51:48;;;;;;;11.43;4.03;;;;;;;12.27;64.78;98065.53;5054320;28;20028;-89
2021/01/25 00:54:14;;;;;;;10.02;2.80;;;;;;;12.28;64.85;98088.31;5038860;28;20111;-81
2021/01/25 00:56:39;;;;;;;7.53;3.40;;;;;;;11.63;64.98;97955.84;5040442;28;20024;-85
2021/01/25 00:59:05;;;;;;;10.40;3.63;;;;;;;12.47;65.02;98094.34;5058161;28;20115;-83
2021/01/25 01:01:30;;;;;;;9.85;3.55;;;;;;;12.22;64.86;98050.31;5058131;28;20033;-89
2021/01/25 01:03:56;;;;;;;11.02;4.28;;;;;;;12.47;65.02;98084.56;5057985;28;20029;-82
2021/01/25 01:06:21;;;;;;;9.32;3.53;;;;;;;12.45;65.36;98102.53;5058072;28;20375;-85
2021/01/25 01:08:46;;;;;;;7.78;2.97;;;;;;;12.41;64.79;98053.72;5057981;28;20336;-92
2021/01/25 01:11:12;;;;;;;7.80;3.10;;;;;;;12.50;64.70;98086.78;5040119;28;20037;-89
2021/01/25 01:13:38;;;;;;;9.85;4.20;;;;;;;12.18;64.66;98016.59;5057882;28;20104;-89
2021/01/25 01:16:04;;;;;;;10.32;2.72;;;;;;;12.51;63.94;98069.06;5057656;28;20033;-91
2021/01/25 01:18:29;;;;;;;6.88;3.47;;;;;;;12.01;63.86;97996.06;5057675;28;20029;-89
2021/01/25 01:20:54;;;;;;;13.05;4.18;;;;;;;12.24;63.36;98010.41;5057794;28;20108;-87
2021/01/25 01:23:20;;;;;;;14.05;3.72;;;;;;;12.57;63.61;98066.31;5057840;28;20036;-87
2021/01/25 01:25:45;;;;;;;12.40;3.75;;;;;;;12.58;63.46;98045.94;5057641;28;20033;-82
2021/01/25 01:28:11;;;;;;;7.80;2.78;;;;;;;12.61;63.28;98048.94;5039788;28;20039;-90
2021/01/25 01:30:36;;;;;;;10.73;3.30;;;;;;;12.66;62.64;98038.50;5039927;28;20025;-83
2021/01/25 01:33:01;;;;;;;9.57;3.05;;;;;;;12.71;62.73;98051.84;5039819;28;20040;-84
2021/01/25 01:35:27;;;;;;;9.13;3.28;;;;;;;12.66;62.79;98030.56;5039757;28;20021;-84
2021/01/25 01:37:52;;;;;;;11.13;2.85;;;;;;;12.71;62.37;98016.63;5057300;28;20033;-81
2021/01/25 01:40:18;;;;;;;7.60;2.10;;;;;;;12.59;62.67;97999.88;5057403;28;20029;-86
2021/01/25 01:42:43;;;;;;;6.72;1.92;;;;;;;12.26;62.24;97939.53;5057514;28;20039;-86
2021/01/25 01:45:09;;;;;;;7.22;2.65;;;;;;;12.72;61.63;97992.56;5057210;28;20427;-90
2021/01/25 01:47:38;;;;;;;8.18;2.63;;;;;;;12.43;61.77;97955.56;5039350;28;20020;-83
2021/01/25 01:50:04;;;;;;;3.25;1.98;;;;;;;12.77;61.27;97968.03;5057266;28;20029;-89
2021/01/25 01:52:29;;;;;;;5.45;2.42;;;;;;;12.13;61.22;97873.59;5039356;28;20498;-86
2021/01/25 01:54:59;;;;;;;5.25;1.55;;;;;;;12.82;61.26;97975.28;5057083;28;20101;-88
2021/01/25 01:57:25;;;;;;;7.47;2.00;;;;;;;12.82;61.01;97972.63;5039310;28;20024;-87
2021/01/25 01:59:51;;;;;;;6.53;1.80;;;;;;;12.56;60.94;97942.91;5057164;28;20025;-90
2021/01/25 02:02:17;;;;;;;4.53;1.52;;;;;;;12.87;61.26;97978.06;5039210;28;20079;-84
2021/01/25 02:04:44;;;;;;;4.82;1.38;;;;;;;12.88;60.85;97974.38;5056125;28;20032;-87
2021/01/25 02:07:11;;;;;;;5.00;1.85;;;;;;;12.84;60.80;97968.72;5056788;28;20054;-89
2021/01/25 02:09:40;;;;;;;5.25;1.60;;;;;;;12.89;60.78;97978.63;5039309;28;20033;-87
2021/01/25 02:12:08;;;;;;;4.97;1.55;;;;;;;12.34;60.65;97880.97;5039155;28;20032;-86
2021/01/25 02:14:33;;;;;;;4.68;1.67;;;;;;;12.21;60.37;97849.47;5056692;28;20029;-85
2021/01/25 02:16:59;;;;;;;3.05;1.23;;;;;;;12.91;59.94;97960.66;5056684;28;20029;-85
2021/01/25 02:19:39;;;;;;;4.40;1.80;;;;;;;12.77;59.89;97916.91;5038894;28;20082;-86
2021/01/25 02:22:18;;;;;;;4.80;1.65;;;;;;;12.87;59.88;97933.03;5038810;28;20431;-81
2021/01/25 02:25:01;;;;;;;6.07;1.30;;;;;;;12.57;59.87;97880.16;5056759;28;20044;-88
2021/01/25 02:27:38;;;;;;;3.72;1.42;;;;;;;12.88;59.67;97926.69;5056456;28;20039;-80
2021/01/25 02:30:06;;;;;;;3.53;1.15;;;;;;;12.91;59.71;97916.44;5038751;28;20025;-86
2021/01/25 02:32:33;;;;;;;4.40;1.98;;;;;;;12.88;59.22;97930.16;5038674;28;20025;-87
2021/01/25 02:35:01;;;;;;;3.63;1.60;;;;;;;12.87;59.84;97922.44;5056441;28;20447;-90
2021/01/25 02:37:28;;;;;;;5.75;1.90;;;;;;;12.83;58.87;97923.94;5038675;28;20029;-87
2021/01/25 02:39:56;;;;;;;5.60;1.98;;;;;;;11.81;59.52;97762.00;5056163;28;20147;-88
2021/01/25 02:42:23;;;;;;;4.20;1.40;;;;;;;12.51;59.51;97859.91;5056077;28;20036;-85
2021/01/25 02:44:49;;;;;;;5.53;1.75;;;;;;;12.88;59.30;97926.69;5038551;28;20029;-87
2021/01/25 02:47:17;;;;;;;2.80;1.42;;;;;;;12.79;59.02;97909.53;5038682;28;20505;-83
2021/01/25 02:49:44;;;;;;;6.63;2.15;;;;;;;12.87;59.52;97928.53;5056143;28;20458;-86
2021/01/25 02:52:11;;;;;;;3.50;1.70;;;;;;;12.90;59.56;97916.66;5055965;28;20032;-81
2021/01/25 02:54:37;;;;;;;5.20;2.13;;;;;;;12.84;60.01;97952.84;5038108;28;20034;-89
2021/01/25 02:57:02;;;;;;;5.38;1.70;;;;;;;11.99;59.53;97775.97;5038066;28;20029;-81
2021/01/25 02:59:28;;;;;;;4.55;1.52;;;;;;;12.94;59.54;97915.16;5038044;28;20051;-79
2021/01/25 03:01:54;;;;;;;5.72;1.75;;;;;;;12.89;60.05;97923.81;5038161;28;20055;-84
2021/01/25 03:04:20;;;;;;;6.07;1.90;;;;;;;12.97;59.65;97906.75;5055869;28;20021;-87
2021/01/25 03:06:47;;;;;;;7.18;1.90;;;;;;;12.72;59.30;97881.34;5058016;28;20343;-81
2021/01/25 03:09:12;;;;;;;3.58;1.70;;;;;;;12.98;59.22;97914.47;5043458;28;20100;-80
2021/01/25 03:11:41;;;;;;;5.07;1.60;;;;;;;12.65;59.73;97877.19;5059603;28;20418;-84
2021/01/25 03:14:07;;;;;;;6.63;1.90;;;;;;;12.99;59.55;97907.31;5057657;28;20024;-87
2021/01/25 03:16:33;;;;;;;4.68;1.65;;;;;;;12.68;59.49;97853.72;5055489;28;20324;-82
2021/01/25 03:18:58;;;;;;;5.63;2.50;;;;;;;12.76;59.64;97857.03;5055716;28;20087;-84
2021/01/25 03:21:24;;;;;;;6.45;3.00;;;;;;;12.99;59.60;97878.97;5037865;28;20423;-80
2021/01/25 03:23:51;;;;;;;5.70;2.25;;;;;;;12.17;59.21;97755.72;5055273;28;20032;-84
2021/01/25 03:26:16;;;;;;;7.90;3.15;;;;;;;12.40;59.13;97805.97;5055098;28;20085;-80
2021/01/25 03:28:42;;;;;;;6.25;2.33;;;;;;;12.71;59.30;97829.41;5055669;28;20032;-78
2021/01/25 03:31:07;;;;;;;4.60;1.60;;;;;;;13.02;59.19;97859.97;5037694;28;20047;-82
2021/01/25 03:33:33;;;;;;;5.13;2.00;;;;;;;12.71;59.30;97807.44;5055022;28;20029;-86
2021/01/25 03:35:58;;;;;;;4.82;2.10;;;;;;;13.01;59.29;97847.75;5055353;28;20096;-79
2021/01/25 03:38:23;;;;;;;4.43;1.95;;;;;;;12.94;59.31;97830.41;5054997;28;20423;-78
2021/01/25 03:40:49;;;;;;;5.18;1.92;;;;;;;12.49;59.56;97742.88;5037555;28;20029;-79
2021/01/25 03:43:14;;;;;;;5.88;1.70;;;;;;;12.47;59.15;97753.69;5037231;28;20509;-86
2021/01/25 03:45:40;;;;;;;5.15;1.90;;;;;;;13.01;59.32;97823.91;5055016;28;20104;-82
2021/01/25 03:48:07;;;;;;;6.80;1.65;;;;;;;12.91;59.12;97793.78;5054950;28;20098;-80
2021/01/25 03:50:32;;;;;;;9.73;2.03;;;;;;;12.53;59.10;97730.78;5037142;28;20037;-82
2021/01/25 03:53:04;;;;;;;8.77;2.30;;;;;;;12.96;59.69;97788.59;5054987;28;20028;-79
2021/01/25 03:55:29;;;;;;;6.20;2.08;;;;;;;12.72;59.15;97746.28;5037100;28;20032;-90
2021/01/25 03:57:56;;;;;;;5.18;1.90;;;;;;;13.18;59.27;97821.34;5054856;28;20091;-81
2021/01/25 04:00:22;;;;;;;7.50;1.80;;;;;;;13.13;59.58;97818.56;5037095;28;20028;-84
2021/01/25 04:02:47;;;;;;;5.03;1.80;;;;;;;12.84;60.14;97772.72;5054782;28;20021;-80
2021/01/25 04:05:13;;;;;;;5.53;1.95;;;;;;;13.22;60.61;97843.69;5037007;28;20029;-79
2021/01/25 04:07:39;;;;;;;5.20;1.70;;;;;;;13.19;60.70;97838.88;5054611;28;20111;-83
2021/01/25 04:10:05;;;;;;;5.80;1.90;;;;;;;13.20;60.84;97845.78;5054704;28;20021;-80
2021/01/25 04:12:31;;;;;;;5.93;1.80;;;;;;;13.14;60.59;97854.63;5054532;28;20324;-79
2021/01/25 04:14:56;;;;;;;4.60;2.40;;;;;;;12.87;61.00;97814.63;5036952;28;20059;-85
2021/01/25 04:17:23;;;;;;;7.28;1.80;;;;;;;13.20;60.55;97861.69;5036832;28;20025;-79
2021/01/25 04:19:49;;;;;;;6.70;2.00;;;;;;;13.27;61.01;97885.38;5054817;28;20028;-80
2021/01/25 04:22:14;;;;;;;8.90;2.15;;;;;;;13.12;60.81;97854.06;5054673;28;20093;-78
2021/01/25 04:24:40;;;;;;;5.85;1.70;;;;;;;12.09;60.94;97714.53;5036683;28;20033;-81
2021/01/25 04:27:10;;;;;;;6.93;1.73;;;;;;;12.58;61.37;97774.03;5036708;28;20028;-85
2021/01/25 04:29:37;;;;;;;7.63;1.70;;;;;;;12.63;61.18;97766.22;5057232;28;20040;-78
2021/01/25 04:32:02;;;;;;;8.55;1.90;;;;;;;12.92;61.09;97806.78;5058818;28;20158;-79
2021/01/25 04:34:28;;;;;;;11.15;2.45;;;;;;;12.53;61.13;97744.81;5058452;28;20098;-77
2021/01/25 04:36:53;;;;;;;7.13;1.60;;;;;;;12.90;60.90;97785.03;5058612;28;20025;-79
2021/01/25 04:39:19;;;;;;;6.82;1.75;;;;;;;12.26;61.24;97704.84;5058369;28;20108;-79
2021/01/25 04:41:44;;;;;;;8.88;2.47;;;;;;;13.25;61.28;97845.88;5058474;28;20031;-77
2021/01/25 04:44:10;;;;;;;12.43;2.70;;;;;;;13.22;61.19;97833.09;5058402;28;20336;-81
2021/01/25 04:46:37;;;;;;;9.75;1.98;;;;;;;13.22;61.18;97838.38;5058451;28;20111;-78
2021/01/25 04:49:04;;;;;;;8.00;1.98;;;;;;;13.13;61.25;97831.03;5058737;28;20035;-80
2021/01/25 04:51:31;;;;;;;10.52;2.45;;;;;;;13.19;61.19;97844.16;5040604;28;20029;-78
2021/01/25 04:53:57;;;;;;;8.07;2.65;;;;;;;13.36;60.66;97844.22;5058401;28;20033;-80
2021/01/25 04:56:24;;;;;;;10.60;2.30;;;;;;;13.10;61.36;97805.81;5058102;28;20032;-90
2021/01/25 04:58:50;;;;;;;13.20;2.45;;;;;;;13.24;61.28;97862.00;5058292;28;20040;-81
2021/01/25 05:01:15;;;;;;;7.82;3.05;;;;;;;12.34;61.86;97712.41;5058288;28;20033;-90
2021/01/25 05:03:41;;;;;;;9.30;2.67;;;;;;;13.21;62.19;97839.44;5040499;28;20098;-86
2021/01/25 05:06:06;;;;;;;9.70;3.40;;;;;;;12.43;62.02;97734.03;5058266;28;20091;-89
2021/01/25 05:08:32;;;;;;;7.65;2.80;;;;;;;13.19;62.32;97838.06;5040275;28;20489;-81
2021/01/25 05:10:57;;;;;;;10.23;3.35;;;;;;;13.17;62.49;97854.19;5058083;28;20025;-82
2021/01/25 05:13:24;;;;;;;14.52;4.20;;;;;;;13.12;62.21;97832.06;5057845;28;20058;-87
2021/01/25 05:15:51;;;;;;;14.25;4.05;;;;;;;13.20;62.30;97851.06;5057878;28;20029;-88
2021/01/25 05:18:22;;;;;;;12.27;3.25;;;;;;;13.22;62.70;97849.00;5040329;28;20025;-80
2021/01/25 05:20:53;;;;;;;13.30;3.35;;;;;;;12.49;62.75;97727.00;5057958;28;20052;-84
2021/01/25 05:23:18;;;;;;;10.52;2.85;;;;;;;13.25;63.05;97853.81;5057972;28;20029;-89
2021/01/25 05:25:44;;;;;;;7.55;2.97;;;;;;;13.27;62.72;97837.69;5057710;28;20028;-88
2021/01/25 05:28:20;;;;;;;12.55;3.10;;;;;;;12.59;62.85;97746.53;5057611;28;20025;-87
2021/01/25 05:30:46;;;;;;;12.07;2.65;;;;;;;13.27;63.06;97861.53;5040036;28;20336;-87
2021/01/25 05:33:12;;;;;;;11.48;2.33;;;;;;;12.33;63.00;97697.56;5057875;28;20032;-83
2021/01/25 05:35:38;;;;;;;12.07;4.35;;;;;;;12.92;63.29;97790.91;5039851;28;20025;-82
2021/01/25 05:38:08;;;;;;;11.43;5.05;;;;;;;12.32;63.65;97709.19;5057452;28;20029;-87
2021/01/25 05:40:39;;;;;;;16.60;6.75;;;;;;;12.72;63.69;97788.66;5057192;28;20035;-86
2021/01/25 05:43:12;;;;;;;8.60;3.60;;;;;;;12.18;64.33;97710.50;5057317;28;20040;-84
2021/01/25 05:45:38;;;;;;;11.27;4.20;;;;;;;12.90;64.32;97821.31;5057555;28;20020;-88
2021/01/25 05:48:04;;;;;;;8.40;3.58;;;;;;;12.55;64.42;97777.16;5057297;28;20455;-83
2021/01/25 05:50:47;;;;;;;8.55;3.55;;;;;;;12.77;64.60;97789.78;5057562;28;20055;-81
2021/01/25 05:53:13;;;;;;;9.52;4.18;;;;;;;12.70;64.62;97801.31;5057197;28;20491;-84
2021/01/25 05:55:40;;;;;;;10.85;3.50;;;;;;;12.98;64.17;97834.19;5039242;28;20116;-79
2021/01/25 05:58:06;;;;;;;8.20;3.50;;;;;;;12.79;64.84;97812.34;5057232;28;20025;-85
2021/01/25 06:00:33;;;;;;;8.20;4.45;;;;;;;12.78;64.82;97802.81;5039190;28;20036;-84
2021/01/25 06:02:59;;;;;;;12.80;5.15;;;;;;;12.45;64.38;97752.31;5057088;28;20052;-81
2021/01/25 06:05:26;;;;;;;13.30;6.80;;;;;;;12.38;64.59;97740.03;5053185;28;20056;-83
2021/01/25 06:07:52;;;;;;;10.77;4.63;;;;;;;12.24;64.75;97714.06;5056632;28;20078;-85
2021/01/25 06:10:27;;;;;;;11.80;4.70;;;;;;;13.10;64.71;97819.06;5056282;28;20032;-83
2021/01/25 06:13:08;;;;;;;8.55;4.35;;;;;;;13.11;64.09;97809.25;5056519;28;20025;-83
2021/01/25 06:15:39;;;;;;;10.02;4.30;;;;;;;13.20;63.84;97813.97;5051057;28;20068;-85
2021/01/25 06:18:05;;;;;;;9.63;4.15;;;;;;;13.29;63.74;97819.69;5036535;28;20041;-85
2021/01/25 06:20:31;;;;;;;10.05;4.55;;;;;;;13.45;63.54;97818.16;5045498;28;20115;-85
2021/01/25 06:22:58;;;;;;;10.57;6.03;;;;;;;13.40;63.73;97826.03;5025910;28;20514;-82
2021/01/25 06:25:25;;;;;;;16.67;8.07;;;;;;;13.38;63.31;97818.31;5054449;28;20036;-85
2021/01/25 06:27:55;;;;;;;12.82;6.40;;;;;;;13.38;63.30;97831.56;5049101;28;20033;-84
2021/01/25 06:30:23;;;;;;;12.80;7.13;;;;;;;13.34;63.41;97841.78;5041194;28;20025;-85
2021/01/25 06:32:50;;;;;;;9.82;5.10;;;;;;;12.87;63.26;97774.91;5036848;28;20040;-81
2021/01/25 06:35:16;;;;;;;13.23;5.63;;;;;;;12.99;63.34;97802.16;5035383;28;20400;-84
2021/01/25 06:37:50;;;;;;;15.93;7.07;;;;;;;13.10;63.66;97818.25;5044212;28;20056;-83
2021/01/25 06:40:23;;;;;;;15.30;7.07;;;;;;;12.96;63.88;97812.41;5046617;28;20435;-83
2021/01/25 06:42:49;;;;;;;15.07;6.47;;;;;;;13.25;63.86;97845.06;5045460;28;20044;-80
2021/01/25 06:45:15;;;;;;;11.15;6.72;;;;;;;13.18;63.66;97833.81;5046690;28;20064;-83
2021/01/25 06:47:41;;;;;;;14.18;7.43;;;;;;;13.14;63.68;97841.38;5055757;28;20061;-85
2021/01/25 06:50:07;;;;;;;13.82;6.82;;;;;;;12.73;64.02;97763.78;5025590;28;20033;-83
2021/01/25 06:52:38;;;;;;;16.23;8.13;;;;;;;13.17;63.86;97808.34;5035210;28;20067;-86
2021/01/25 06:55:05;;;;;;;15.23;8.57;;;;;;;13.14;63.89;97817.53;5018475;28;20163;-82
2021/01/25 06:57:36;;;;;;;16.83;8.95;;;;;;;12.70;64.19;97755.50;5035776;28;20056;-84
2021/01/25 07:00:12;;;;;;;13.88;8.02;;;;;;;13.14;63.74;97832.63;5036034;28;20348;-80
2021/01/25 07:02:55;;;;;;;17.10;12.05;;;;;;;12.23;64.18;97673.56;5033221;28;20355;-87
2021/01/25 07:05:34;;;;;;;14.82;8.25;;;;;;;13.12;64.04;97808.22;5055576;28;20041;-80
2021/01/25 07:08:22;;;;;;;13.55;8.20;;;;;;;13.08;64.41;97813.19;5037174;28;20033;-80
2021/01/25 07:10:59;;;;;;;8.70;5.35;;;;;;;12.77;63.92;97790.59;5035610;28;20025;-83
2021/01/25 07:13:26;;;;;;;12.32;7.05;;;;;;;12.45;63.63;97731.94;5039518;28;20036;-82
2021/01/25 07:15:53;;;;;;;13.63;7.35;;;;;;;13.11;63.86;97833.91;5054939;28;20339;-81
2021/01/25 07:18:20;;;;;;;14.65;7.05;;;;;;;13.08;63.61;97815.03;5054689;28;20478;-84
2021/01/25 07:20:50;;;;;;;12.52;6.28;;;;;;;13.16;63.10;97807.50;5055263;28;20025;-84
2021/01/25 07:23:18;;;;;;;15.32;7.82;;;;;;;12.48;63.09;97694.44;5036849;28;20031;-80
2021/01/25 07:25:55;;;;;;;16.85;8.98;;;;;;;13.13;62.92;97773.53;5046722;28;20040;-85
2021/01/25 07:28:22;;;;;;;15.98;8.93;;;;;;;13.12;63.17;97761.31;5034276;28;20029;-81
2021/01/25 07:30:48;;;;;;;16.40;8.52;;;;;;;12.82;62.68;97687.41;5031496;28;20029;-86
2021/01/25 07:33:14;;;;;;;15.32;7.13;;;;;;;12.65;62.39;97674.13;5054383;28;20037;-81
2021/01/25 07:35:39;;;;;;;12.50;6.55;;;;;;;11.76;62.36;97569.66;5037060;28;20102;-85
2021/01/25 07:38:05;;;;;;;12.13;7.03;;;;;;;12.54;62.39;97705.91;5051520;28;20059;-83
2021/01/25 07:40:30;;;;;;;13.57;7.35;;;;;;;12.19;61.96;97645.16;5034582;28;20029;-82
2021/01/25 07:42:56;;;;;;;15.00;7.38;;;;;;;12.67;62.33;97754.13;5034769;28;20363;-85
2021/01/25 07:45:24;;;;;;;12.88;6.60;;;;;;;11.64;62.77;97587.38;5036949;28;20036;-85
2021/01/25 07:47:51;;;;;;;12.80;6.10;;;;;;;12.91;62.50;97791.94;5052510;28;20036;-89
2021/01/25 07:50:17;;;;;;;14.02;6.85;;;;;;;12.39;62.65;97696.63;5037017;28;20025;-87
2021/01/25 07:52:42;;;;;;;11.50;6.55;;;;;;;11.66;62.44;97566.81;5054100;28;20025;-78
2021/01/25 07:55:15;;;;;;;9.85;5.00;;;;;;;12.48;62.49;97710.31;5054295;28;20482;-84
2021/01/25 07:57:41;;;;;;;9.68;4.72;;;;;;;12.59;62.51;97716.59;5035513;28;20029;-83
2021/01/25 08:00:20;;;;;;;8.70;4.60;;;;;;;12.99;62.66;97777.50;5054580;28;20033;-83
2021/01/25 08:03:11;;;;;;;5.72;3.47;;;;;;;11.94;62.31;97597.84;5052744;28;20028;-87
2021/01/25 08:05:38;;;;;;;5.10;2.92;;;;;;;12.53;62.40;97680.47;5049729;28;20048;-83
2021/01/25 08:08:06;;;;;;;4.80;2.13;;;;;;;12.87;62.47;97724.59;5036472;28;20119;-78
2021/01/25 08:10:31;;;;;;;5.82;2.75;;;;;;;12.84;61.97;97727.72;5052907;28;20123;-84
2021/01/25 08:13:00;;;;;;;5.15;1.70;;;;;;;12.95;61.80;97742.75;5055419;28;20435;-82
2021/01/25 08:15:32;;;;;;;6.10;1.60;;;;;;;12.72;61.94;97714.50;5036256;28;20024;-85
2021/01/25 08:18:03;;;;;;;2.72;1.63;;;;;;;12.34;61.78;97634.88;5054313;28;20028;-80
2021/01/25 08:20:33;;;;;;;4.40;1.80;;;;;;;13.22;61.64;97769.50;5051162;28;20036;-87
2021/01/25 08:23:18;;;;;;;4.32;2.25;;;;;;;13.24;61.81;97777.19;5032663;28;20335;-82
2021/01/25 08:25:51;;;;;;;3.60;1.85;;;;;;;13.25;61.32;97770.84;5051594;28;20116;-83
2021/01/25 08:28:22;;;;;;;2.45;2.05;;;;;;;13.12;61.41;97752.56;5051182;28;20091;-85
2021/01/25 08:30:50;;;;;;;3.57;1.77;;;;;;;12.89;61.57;97733.09;5035724;28;20025;-85
2021/01/25 08:33:34;;;;;;;2.53;1.50;;;;;;;13.31;61.52;97804.34;5054079;28;20264;-82
2021/01/25 08:36:00;;;;;;;4.47;2.40;;;;;;;13.11;61.43;97772.97;5041097;28;20025;-85
2021/01/25 08:38:40;;;;;;;2.55;1.85;;;;;;;12.74;60.79;97711.63;5036302;28;20348;-85
2021/01/25 08:41:28;;;;;;;3.53;1.30;;;;;;;13.27;60.75;97792.63;5053116;28;20439;-82
2021/01/25 08:43:58;;;;;;;2.38;1.40;;;;;;;13.42;60.88;97818.63;5051124;28;20029;-87
2021/01/25 08:46:32;;;;;;;2.30;1.58;;;;;;;13.28;60.57;97821.53;5054027;28;20059;-82
2021/01/25 08:49:19;;;;;;;3.40;2.15;;;;;;;12.89;60.18;97764.88;5036300;28;20033;-86
2021/01/25 08:51:59;;;;;;;2.55;2.00;;;;;;;13.10;60.40;97768.72;5053932;28;20029;-76
2021/01/25 08:54:26;;;;;;;2.67;1.75;;;;;;;13.55;60.01;97836.88;5036156;28;20027;-86
2021/01/25 08:56:52;;;;;;;2.30;1.65;;;;;;;13.21;59.51;97778.47;5052364;28;20027;-86
2021/01/25 08:59:34;;;;;;;4.03;1.38;;;;;;;13.37;59.96;97800.75;5032980;28;20032;-80
2021/01/25 09:02:28;;;;;;;;;;;;;;;13.54;59.99;97838.75;5053920;28;20021;-83
2021/01/25 09:04:54;;;;;;;2.42;1.27;;;;;;;13.20;59.61;97786.66;5022398;28;20379;-84
2021/01/25 09:07:22;;;;;;;1.40;1.30;;;;;;;13.65;59.45;97847.66;5036211;28;20111;-79
2021/01/25 09:09:48;;;;;;;2.00;1.50;;;;;;;13.68;59.41;97857.81;5035853;28;20035;-85
2021/01/25 09:12:15;;;;;;;5.07;1.30;;;;;;;13.28;59.26;97803.00;5053443;28;20033;-85
2021/01/25 09:14:41;;;;;;;2.00;1.23;;;;;;;13.74;58.82;97867.47;5037430;28;20059;-88
2021/01/25 09:17:07;;;;;;;2.22;1.20;;;;;;;13.40;58.86;97805.63;5039497;28;20451;-87
2021/01/25 09:19:33;;;;;;;3.03;1.85;;;;;;;13.72;59.04;97853.63;5057617;28;20082;-83
2021/01/25 09:21:58;;;;;;;2.45;1.17;;;;;;;13.73;58.35;97849.94;5039730;28;20112;-85
2021/01/25 09:24:24;;;;;;;2.85;1.08;;;;;;;13.07;58.09;97752.47;5039481;28;20021;-85
2021/01/25 09:26:49;;;;;;;2.90;1.85;;;;;;;13.75;58.12;97842.53;5039626;28;20035;-85
2021/01/25 09:29:15;;;;;;;1.75;1.40;;;;;;;13.97;57.91;97869.97;5039741;28;20021;-83
2021/01/25 09:31:40;;;;;;;3.65;2.17;;;;;;;14.02;57.89;97879.06;5057382;28;20078;-82
2021/01/25 09:34:06;;;;;;;3.08;1.67;;;;;;;13.98;57.99;97862.81;5039788;28;20025;-80
2021/01/25 09:36:32;;;;;;;8.07;5.00;;;;;;;14.07;57.83;97879.13;5057384;28;20055;-85
2021/01/25 09:38:58;;;;;;;6.60;3.03;;;;;;;13.20;57.76;97750.38;5056881;28;20017;-83
2021/01/25 09:41:23;;;;;;;4.40;2.85;;;;;;;14.06;57.01;97874.88;5036065;28;20032;-83
2021/01/25 09:43:49;;;;;;;5.60;3.08;;;;;;;14.00;56.57;97882.75;5056090;28;20025;-87
2021/01/25 09:46:14;;;;;;;3.55;1.90;;;;;;;13.68;56.09;97789.66;5053695;28;20099;-87
2021/01/25 09:48:39;;;;;;;4.03;1.73;;;;;;;14.25;55.32;97881.59;5041380;28;20126;-88
2021/01/25 09:51:06;;;;;;;4.65;2.08;;;;;;;13.69;55.53;97769.25;5053352;28;20067;-88
2021/01/25 09:53:31;;;;;;;5.60;2.75;;;;;;;14.34;55.26;97909.34;5056478;28;20347;-81
2021/01/25 09:55:57;;;;;;;4.18;2.60;;;;;;;14.13;55.08;97833.88;5052737;28;20033;-82
2021/01/25 09:58:23;;;;;;;5.30;3.17;;;;;;;14.44;55.10;97860.91;5053885;28;20029;-84
2021/01/25 10:00:50;;;;;;;3.55;2.47;;;;;;;14.08;54.81;97791.31;5056864;28;20056;-81
2021/01/25 10:03:16;;;;;;;7.82;5.13;;;;;;;14.41;54.70;97850.75;5038500;28;20037;-80
2021/01/25 10:05:42;;;;;;;8.18;5.45;;;;;;;14.53;54.68;97868.22;5054100;28;20030;-81
2021/01/25 10:08:08;;;;;;;4.32;2.75;;;;;;;14.53;54.54;97868.22;5035928;28;20329;-80
2021/01/25 10:10:33;;;;;;;3.75;1.80;;;;;;;14.57;54.44;97871.19;5035280;28;20055;-81
2021/01/25 10:12:59;;;;;;;3.22;2.20;;;;;;;13.59;54.39;97714.19;5054632;28;20495;-85
2021/01/25 10:15:24;;;;;;;2.72;1.60;;;;;;;14.60;54.08;97892.75;5056621;28;20021;-86
2021/01/25 10:17:50;;;;;;;4.22;2.45;;;;;;;14.52;54.34;97871.94;5055359;28;20033;-86
2021/01/25 10:20:15;;;;;;;4.45;2.20;;;;;;;13.97;53.70;97786.91;5037938;28;20040;-88
2021/01/25 10:22:41;;;;;;;5.65;3.28;;;;;;;14.53;54.10;97854.13;5054373;28;20037;-82
2021/01/25 10:25:08;;;;;;;5.35;2.72;;;;;;;14.61;53.69;97889.06;5038448;28;20080;-85
2021/01/25 10:27:35;;;;;;;8.05;4.20;;;;;;;13.83;53.50;97767.06;5053241;28;20048;-88
2021/01/25 10:30:01;;;;;;;14.75;6.00;;;;;;;14.58;53.46;97888.75;5056190;28;20090;-86
2021/01/25 10:32:26;;;;;;;13.77;7.97;;;;;;;14.02;53.56;97824.13;5029763;28;20033;-89
2021/01/25 10:34:52;;;;;;;14.35;7.25;;;;;;;14.13;53.36;97838.41;5031573;28;20029;-88
2021/01/25 10:37:17;;;;;;;7.88;4.85;;;;;;;14.52;52.92;97903.78;5055790;28;20024;-85
2021/01/25 10:39:43;;;;;;;6.78;3.20;;;;;;;14.37;52.91;97894.78;5038246;28;20037;-90
2021/01/25 10:42:09;;;;;;;5.97;2.55;;;;;;;13.78;52.60;97801.47;5035406;28;20422;-86
2021/01/25 10:44:34;;;;;;;5.40;2.15;;;;;;;14.20;52.61;97874.34;5037022;28;20025;-79
2021/01/25 10:47:00;;;;;;;5.95;2.78;;;;;;;14.48;52.47;97931.09;5038265;28;20388;-86
2021/01/25 10:49:25;;;;;;;6.07;2.45;;;;;;;14.42;52.30;97935.50;5038024;28;20025;-80
2021/01/25 10:51:50;;;;;;;6.55;2.58;;;;;;;14.30;52.32;97927.59;5055623;28;20031;-81
2021/01/25 10:54:22;;;;;;;7.20;3.88;;;;;;;14.19;52.22;97919.72;5055541;28;20419;-77
2021/01/25 10:56:48;;;;;;;11.23;3.40;;;;;;;14.23;52.01;97940.22;5053559;28;20040;-85
2021/01/25 10:59:13;;;;;;;7.22;3.92;;;;;;;13.94;51.87;97910.25;5055645;28;20076;-81
2021/01/25 11:01:38;;;;;;;6.55;3.42;;;;;;;13.52;52.14;97832.88;5054976;28;20166;-88
2021/01/25 11:04:04;;;;;;;7.28;3.97;;;;;;;13.52;52.25;97891.19;5037635;28;20029;-84
2021/01/25 11:06:29;;;;;;;7.18;2.83;;;;;;;13.73;51.44;97987.06;5031740;28;20504;-88
2021/01/25 11:08:54;;;;;;;4.00;2.67;;;;;;;13.81;51.98;97979.53;5035731;28;20033;-91
2021/01/25 11:11:20;;;;;;;3.13;2.38;;;;;;;12.97;51.88;97888.22;5035994;28;20040;-90
2021/01/25 11:13:45;;;;;;;4.68;2.40;;;;;;;13.49;52.02;98018.13;5045457;28;20043;-84
2021/01/25 11:16:10;;;;;;;2.97;1.83;;;;;;;12.55;52.27;97940.50;5055224;28;20017;-90
2021/01/25 11:18:36;;;;;;;11.45;2.83;;;;;;;12.50;55.49;98043.63;5044516;28;20343;-83
2021/01/25 11:21:01;;;;;;;6.07;2.17;;;;;;;12.43;56.36;98072.03;5039280;28;20022;-87
2021/01/25 11:23:27;;;;;;;5.47;2.60;;;;;;;12.18;56.45;98048.34;5055387;28;20083;-87
2021/01/25 11:25:53;;;;;;;9.90;4.15;;;;;;;11.92;57.61;97949.81;5039823;28;20037;-90
2021/01/25 11:28:20;;;;;;;4.32;2.15;;;;;;;12.01;57.42;98022.53;5054566;28;20423;-87
2021/01/25 11:30:46;;;;;;;4.90;2.53;;;;;;;11.43;57.61;97964.84;5037653;28;20032;-92
2021/01/25 11:33:11;;;;;;;3.33;2.10;;;;;;;11.43;57.31;97969.31;5053357;28;20226;-91